Time;durP1;ratioP1;P1;durP2;ratioP2;P2;SDS_P1;SDS_P2;PMS_P1;PMS_P2;Temp;Humidity;BMP_temperature;BMP_pressure;BME280_temperature;BME280_humidity;BME280_pressure;Samples;Min_cycle;Max_cycle;Signal;HPM_P1;HPM_P2
2021/08/20 00:02:17;;;;;;;0.52;0.45;;;25.20;45.80;;;;;;5067691;28;20593;-73
2021/08/20 00:04:44;;;;;;;0.82;0.68;;;25.20;45.80;;;;;;5068411;28;20053;-74
2021/08/20 00:07:11;;;;;;;0.77;0.57;;;25.20;45.80;;;;;;5067726;28;20079;-74
2021/08/20 00:09:38;;;;;;;0.65;0.60;;;25.20;45.80;;;;;;5068099;28;20135;-73
2021/08/20 00:12:08;;;;;;;0.50;0.50;;;25.20;45.80;;;;;;5068124;28;20079;-74
2021/08/20 00:14:35;;;;;;;0.70;0.70;;;25.20;45.80;;;;;;5067687;28;20072;-73
2021/08/20 00:17:02;;;;;;;0.57;0.50;;;25.20;45.80;;;;;;5067690;28;20495;-73
2021/08/20 00:19:30;;;;;;;0.98;0.90;;;25.20;45.90;;;;;;5067936;28;20071;-74
2021/08/20 00:21:57;;;;;;;0.75;0.75;;;25.20;45.90;;;;;;5067496;28;20131;-74
2021/08/20 00:24:24;;;;;;;1.38;0.80;;;25.20;46.00;;;;;;5068163;28;20083;-74
2021/08/20 00:26:51;;;;;;;0.50;0.50;;;25.20;46.00;;;;;;5066269;28;20048;-73
2021/08/20 00:29:19;;;;;;;0.75;0.65;;;25.20;46.00;;;;;;5067733;28;20460;-74
2021/08/20 00:31:46;;;;;;;1.05;0.85;;;25.20;46.00;;;;;;5066967;28;20569;-74
2021/08/20 00:34:13;;;;;;;0.75;0.60;;;25.20;46.00;;;;;;5067132;28;20075;-73
2021/08/20 00:36:40;;;;;;;0.85;0.77;;;25.10;46.00;;;;;;5067389;28;20135;-73
2021/08/20 00:39:07;;;;;;;0.45;0.30;;;25.10;46.00;;;;;;5067579;28;20351;-73
2021/08/20 00:41:34;;;;;;;0.75;0.75;;;25.10;46.00;;;;;;5067421;28;20072;-74
2021/08/20 00:44:02;;;;;;;0.57;0.50;;;25.10;46.00;;;;;;5067672;28;20079;-74
2021/08/20 00:46:29;;;;;;;0.50;0.50;;;25.10;46.00;;;;;;5067049;28;20041;-74
2021/08/20 00:48:56;;;;;;;0.60;0.60;;;25.10;46.10;;;;;;5066970;28;20408;-73
2021/08/20 00:51:25;;;;;;;0.70;0.68;;;25.10;46.10;;;;;;5067227;28;20114;-74
2021/08/20 00:53:54;;;;;;;0.80;0.43;;;25.10;46.10;;;;;;5067046;28;20080;-73
2021/08/20 00:56:22;;;;;;;0.70;0.70;;;25.10;46.10;;;;;;5066050;28;20052;-74
2021/08/20 00:58:50;;;;;;;0.65;0.55;;;25.10;46.20;;;;;;5066951;28;20048;-73
2021/08/20 01:01:18;;;;;;;0.63;0.63;;;25.10;46.10;;;;;;5067164;28;20255;-74
2021/08/20 01:03:45;;;;;;;1.10;0.60;;;25.10;46.20;;;;;;5066838;28;20044;-74
2021/08/20 01:06:12;;;;;;;0.77;0.70;;;25.10;46.20;;;;;;5067072;28;20055;-74
2021/08/20 01:08:40;;;;;;;0.68;0.68;;;25.10;46.20;;;;;;5066665;28;20135;-73
2021/08/20 01:11:10;;;;;;;0.85;0.63;;;25.10;46.20;;;;;;5066770;28;20076;-74
2021/08/20 01:13:40;;;;;;;0.68;0.55;;;25.10;46.20;;;;;;5066311;28;20045;-74
2021/08/20 01:16:09;;;;;;;0.50;0.50;;;25.10;46.20;;;;;;5065618;28;20127;-73
2021/08/20 01:18:39;;;;;;;0.93;0.60;;;25.10;46.20;;;;;;5066652;28;20131;-74
2021/08/20 01:21:12;;;;;;;0.63;0.60;;;25.10;46.20;;;;;;5066618;28;20052;-74
2021/08/20 01:23:39;;;;;;;0.50;0.50;;;25.10;46.10;;;;;;5066669;28;20111;-74
2021/08/20 01:26:07;;;;;;;1.10;0.75;;;25.10;46.20;;;;;;5066654;28;20079;-74
2021/08/20 01:28:34;;;;;;;0.60;0.60;;;25.10;46.10;;;;;;5066454;28;20068;-74
2021/08/20 01:31:07;;;;;;;0.50;0.50;;;25.10;46.10;;;;;;5066419;28;20136;-74
2021/08/20 01:33:35;;;;;;;0.50;0.40;;;25.10;46.10;;;;;;5066644;28;20056;-75
2021/08/20 01:36:02;;;;;;;0.63;0.60;;;25.10;46.20;;;;;;5066306;28;20059;-74
2021/08/20 01:38:31;;;;;;;0.63;0.63;;;25.10;46.10;;;;;;5066146;28;20131;-73
2021/08/20 01:40:58;;;;;;;0.60;0.40;;;25.10;46.20;;;;;;5066382;28;20309;-74
2021/08/20 01:43:25;;;;;;;0.93;0.60;;;25.10;46.10;;;;;;5065958;28;20041;-74
2021/08/20 01:45:52;;;;;;;0.50;0.50;;;25.10;46.20;;;;;;5066080;28;20217;-73
2021/08/20 01:48:19;;;;;;;0.63;0.60;;;25.10;46.20;;;;;;5065893;28;20048;-76
2021/08/20 01:50:46;;;;;;;0.40;0.40;;;25.10;46.20;;;;;;5066137;28;20083;-73
2021/08/20 01:53:14;;;;;;;0.80;0.80;;;25.10;46.30;;;;;;5065766;28;20354;-74
2021/08/20 01:55:44;;;;;;;0.55;0.55;;;25.10;46.30;;;;;;5066029;28;20072;-74
2021/08/20 01:58:11;;;;;;;0.70;0.45;;;25.10;46.30;;;;;;5065848;28;20054;-74
2021/08/20 02:00:39;;;;;;;0.60;0.60;;;25.10;46.40;;;;;;5066232;28;20234;-74
2021/08/20 02:03:07;;;;;;;0.98;0.85;;;25.10;46.40;;;;;;5065929;28;20079;-73
2021/08/20 02:05:34;;;;;;;0.95;0.70;;;25.10;46.30;;;;;;5066081;28;20047;-74
2021/08/20 02:08:02;;;;;;;0.95;0.40;;;25.10;46.30;;;;;;5066192;28;20052;-73
2021/08/20 02:10:29;;;;;;;0.50;0.40;;;25.10;46.40;;;;;;5065534;28;20074;-73
2021/08/20 02:12:56;;;;;;;0.47;0.47;;;25.10;46.30;;;;;;5065851;28;20136;-74
2021/08/20 02:15:23;;;;;;;0.80;0.70;;;25.00;46.30;;;;;;5065632;28;20283;-74
2021/08/20 02:17:50;;;;;;;0.60;0.50;;;25.10;46.40;;;;;;5065096;28;20085;-74
2021/08/20 02:20:17;;;;;;;0.65;0.63;;;25.00;46.30;;;;;;5047168;28;20087;-74
2021/08/20 02:22:44;;;;;;;0.90;0.80;;;25.00;46.30;;;;;;5045699;28;20502;-74
2021/08/20 02:25:12;;;;;;;0.40;0.40;;;25.00;46.30;;;;;;5045806;28;20456;-74
2021/08/20 02:27:39;;;;;;;0.50;0.40;;;25.00;46.30;;;;;;5045703;28;20077;-74
2021/08/20 02:30:06;;;;;;;0.55;0.55;;;25.10;46.40;;;;;;5044946;28;20060;-74
2021/08/20 02:32:33;;;;;;;0.32;0.32;;;25.00;46.40;;;;;;5045564;28;20562;-74
2021/08/20 02:35:18;;;;;;;1.33;0.43;;;25.00;46.50;;;;;;5045743;28;20120;-73
2021/08/20 02:37:45;;;;;;;0.40;0.30;;;25.00;46.40;;;;;;5045661;28;20081;-73
2021/08/20 02:40:12;;;;;;;0.65;0.57;;;25.00;46.40;;;;;;5044860;28;20500;-73
2021/08/20 02:42:39;;;;;;;0.75;0.50;;;25.00;46.40;;;;;;5045292;28;20059;-73
2021/08/20 02:45:07;;;;;;;0.70;0.45;;;25.00;46.40;;;;;;5045706;28;20102;-73
2021/08/20 02:47:34;;;;;;;6.43;0.73;;;25.00;46.50;;;;;;5045617;28;20044;-74
2021/08/20 02:50:01;;;;;;;0.52;0.52;;;25.00;46.50;;;;;;5045155;28;20052;-74
2021/08/20 02:52:29;;;;;;;0.52;0.52;;;25.00;46.50;;;;;;5045477;28;20076;-73
2021/08/20 02:54:56;;;;;;;1.90;0.40;;;25.00;46.40;;;;;;5045693;28;20554;-74
2021/08/20 02:57:27;;;;;;;0.63;0.63;;;25.00;46.40;;;;;;5044951;28;20059;-73
2021/08/20 02:59:57;;;;;;;0.50;0.35;;;25.00;46.40;;;;;;5045417;28;20136;-74
2021/08/20 03:02:25;;;;;;;0.65;0.63;;;25.00;46.40;;;;;;5045587;28;20052;-74
2021/08/20 03:04:52;;;;;;;0.77;0.55;;;25.00;46.40;;;;;;5045099;28;20174;-74
2021/08/20 03:07:19;;;;;;;0.65;0.60;;;25.00;46.30;;;;;;5045408;28;20288;-74
2021/08/20 03:09:46;;;;;;;0.60;0.60;;;25.00;46.30;;;;;;5045234;28;20482;-74
2021/08/20 03:12:13;;;;;;;0.50;0.50;;;25.00;46.30;;;;;;5045320;28;20124;-73
2021/08/20 03:14:40;;;;;;;0.47;0.47;;;25.10;46.40;;;;;;5045568;28;20501;-73
2021/08/20 03:17:08;;;;;;;0.75;0.60;;;25.00;46.30;;;;;;5045237;28;20049;-74
2021/08/20 03:19:35;;;;;;;0.55;0.45;;;25.00;46.40;;;;;;5044878;28;20060;-74
2021/08/20 03:22:02;;;;;;;0.63;0.20;;;25.00;46.40;;;;;;5045055;28;20056;-74
2021/08/20 03:24:29;;;;;;;0.63;0.63;;;25.00;46.40;;;;;;5045184;28;20323;-74
2021/08/20 03:26:56;;;;;;;0.40;0.40;;;25.00;46.50;;;;;;5044867;28;20049;-74
2021/08/20 03:29:23;;;;;;;0.50;0.50;;;25.00;46.50;;;;;;5046580;28;20037;-74
2021/08/20 03:31:50;;;;;;;0.50;0.50;;;25.00;46.50;;;;;;5048609;28;20228;-74
2021/08/20 03:34:17;;;;;;;0.30;0.30;;;25.00;46.50;;;;;;5048835;28;20085;-73
2021/08/20 03:36:44;;;;;;;0.30;0.30;;;25.00;46.50;;;;;;5048091;28;20135;-74
2021/08/20 03:39:11;;;;;;;0.50;0.50;;;25.00;46.50;;;;;;5048725;28;20127;-74
2021/08/20 03:41:38;;;;;;;0.52;0.50;;;25.00;46.50;;;;;;5048456;28;20059;-74
2021/08/20 03:44:05;;;;;;;1.58;0.50;;;25.00;46.50;;;;;;5048982;28;20477;-74
2021/08/20 03:46:32;;;;;;;0.43;0.40;;;25.00;46.50;;;;;;5048229;28;20545;-74
2021/08/20 03:48:59;;;;;;;1.00;0.63;;;25.00;46.60;;;;;;5049014;28;20401;-74
2021/08/20 03:51:26;;;;;;;1.38;0.57;;;25.00;46.50;;;;;;5047694;28;20057;-74
2021/08/20 03:53:54;;;;;;;1.05;0.60;;;25.00;46.50;;;;;;5048155;28;20041;-74
2021/08/20 03:56:21;;;;;;;1.20;0.70;;;25.00;46.50;;;;;;5047758;28;20577;-74
2021/08/20 03:58:48;;;;;;;0.45;0.40;;;25.00;46.60;;;;;;5047882;28;20128;-74
2021/08/20 04:01:15;;;;;;;0.50;0.50;;;25.00;46.60;;;;;;5047868;28;20049;-74
2021/08/20 04:03:42;;;;;;;0.40;0.40;;;25.00;46.60;;;;;;5048483;28;20079;-74
2021/08/20 04:06:10;;;;;;;0.28;0.22;;;25.00;46.60;;;;;;5057661;28;20059;-74
2021/08/20 04:08:40;;;;;;;0.65;0.50;;;25.00;46.60;;;;;;5068240;28;20054;-73
2021/08/20 04:11:13;;;;;;;1.67;0.40;;;25.00;46.60;;;;;;5067808;28;20132;-74
2021/08/20 04:13:41;;;;;;;0.95;0.40;;;25.00;46.60;;;;;;5068140;28;20323;-73
2021/08/20 04:16:08;;;;;;;0.40;0.40;;;25.00;46.60;;;;;;5067365;28;20059;-74
2021/08/20 04:18:39;;;;;;;0.40;0.40;;;25.00;46.50;;;;;;5066424;28;20087;-74
2021/08/20 04:21:10;;;;;;;0.57;0.50;;;25.00;46.50;;;;;;5067776;28;20052;-74
2021/08/20 04:23:37;;;;;;;0.40;0.40;;;25.00;46.50;;;;;;5067679;28;20072;-73
2021/08/20 04:26:04;;;;;;;0.50;0.32;;;25.00;46.50;;;;;;5067494;28;20548;-74
2021/08/20 04:28:31;;;;;;;0.30;0.30;;;25.00;46.40;;;;;;5068066;28;20088;-73
2021/08/20 04:30:58;;;;;;;0.38;0.35;;;25.10;46.50;;;;;;5066925;28;20066;-73
2021/08/20 04:33:26;;;;;;;0.52;0.50;;;25.10;46.40;;;;;;5067692;28;20048;-74
2021/08/20 04:35:53;;;;;;;0.43;0.43;;;25.10;46.40;;;;;;5067559;28;20392;-73
2021/08/20 04:38:20;;;;;;;0.60;0.50;;;25.10;46.30;;;;;;5067643;28;20467;-73
2021/08/20 04:40:47;;;;;;;0.50;0.40;;;25.10;46.30;;;;;;5066556;28;20041;-73
2021/08/20 04:43:14;;;;;;;0.60;0.60;;;25.10;46.20;;;;;;5067430;28;20040;-73
2021/08/20 04:45:41;;;;;;;0.40;0.40;;;25.10;46.20;;;;;;5067438;28;20135;-73
2021/08/20 04:48:08;;;;;;;0.32;0.30;;;25.10;46.10;;;;;;5066970;28;20489;-74
2021/08/20 04:50:35;;;;;;;0.40;0.40;;;25.20;46.10;;;;;;5067174;28;20127;-74
2021/08/20 04:53:03;;;;;;;0.68;0.57;;;25.20;46.10;;;;;;5066923;28;20140;-74
2021/08/20 04:55:30;;;;;;;0.30;0.30;;;25.20;46.10;;;;;;5066897;28;20493;-73
2021/08/20 04:57:57;;;;;;;0.28;0.20;;;25.20;46.60;;;;;;5067143;28;20400;-74
2021/08/20 05:00:24;;;;;;;0.50;0.50;;;25.20;46.00;;;;;;5066951;28;20044;-73
2021/08/20 05:02:52;;;;;;;0.38;0.30;;;25.20;46.00;;;;;;5066935;28;20147;-74
2021/08/20 05:05:19;;;;;;;0.32;0.30;;;25.20;46.00;;;;;;5066489;28;20045;-73
2021/08/20 05:07:46;;;;;;;0.30;0.30;;;25.20;45.90;;;;;;5066907;28;20044;-73
2021/08/20 05:10:14;;;;;;;0.50;0.50;;;25.20;45.90;;;;;;5067211;28;20148;-73
2021/08/20 05:12:41;;;;;;;0.50;0.43;;;25.20;45.90;;;;;;5066629;28;20135;-73
2021/08/20 05:15:09;;;;;;;0.70;0.70;;;25.20;46.00;;;;;;5067062;28;20082;-74
2021/08/20 05:17:36;;;;;;;0.40;0.40;;;25.10;46.00;;;;;;5066456;28;20110;-74
2021/08/20 05:20:05;;;;;;;1.30;0.80;;;25.10;46.10;;;;;;5066475;28;20527;-74
2021/08/20 05:22:44;;;;;;;0.40;0.40;;;25.00;46.10;;;;;;5066620;28;20127;-73
2021/08/20 05:25:12;;;;;;;;;;;24.90;46.30;;;;;;5067463;28;20048;-74
2021/08/20 05:27:40;;;;;;;1.35;0.55;;;24.80;46.50;;;;;;5060722;28;19920;-73
2021/08/20 05:30:09;;;;;;;0.50;0.45;;;24.70;46.70;;;;;;5053141;28;20045;-74
2021/08/20 05:32:36;;;;;;;0.60;0.60;;;24.60;47.10;;;;;;5046241;28;20404;-74
2021/08/20 05:35:08;;;;;;;1.00;0.50;;;24.40;47.30;;;;;;5046329;28;20127;-73
2021/08/20 05:37:36;;;;;;;0.57;0.57;;;24.30;47.70;;;;;;5045973;28;20049;-73
2021/08/20 05:40:04;;;;;;;0.50;0.50;;;24.10;48.10;;;;;;5046616;28;20055;-73
2021/08/20 05:42:32;;;;;;;0.45;0.45;;;23.90;48.30;;;;;;5046280;28;20084;-73
2021/08/20 05:44:59;;;;;;;0.93;0.80;;;23.80;48.60;;;;;;5046591;28;20049;-73
2021/08/20 05:47:26;;;;;;;0.55;0.50;;;23.70;48.90;;;;;;5046195;28;20041;-73
2021/08/20 05:49:57;;;;;;;0.47;0.40;;;23.60;49.20;;;;;;5046950;28;20127;-73
2021/08/20 05:52:24;;;;;;;0.52;0.50;;;23.50;49.40;;;;;;5045150;28;20726;-74
2021/08/20 05:54:52;;;;;;;0.50;0.50;;;23.40;49.60;;;;;;5046209;28;20049;-74
2021/08/20 05:57:19;;;;;;;0.73;0.73;;;23.40;50.00;;;;;;5045711;28;20048;-73
2021/08/20 05:59:46;;;;;;;1.45;0.88;;;23.30;50.10;;;;;;5045927;28;20045;-73
2021/08/20 06:02:14;;;;;;;0.55;0.55;;;23.20;50.20;;;;;;5046046;28;20461;-74
2021/08/20 06:04:41;;;;;;;0.60;0.60;;;23.20;50.50;;;;;;5046094;28;20045;-74
2021/08/20 06:07:08;;;;;;;0.98;0.68;;;23.10;50.60;;;;;;5045685;28;20132;-73
2021/08/20 06:09:35;;;;;;;0.60;0.60;;;23.10;50.60;;;;;;5046151;28;20045;-74
2021/08/20 06:12:02;;;;;;;0.57;0.50;;;23.00;50.70;;;;;;5045948;28;20152;-75
2021/08/20 06:14:29;;;;;;;0.60;0.60;;;23.00;51.00;;;;;;5044650;28;20124;-74
2021/08/20 06:16:56;;;;;;;0.55;0.55;;;22.90;51.00;;;;;;5045500;28;20084;-74
2021/08/20 06:19:25;;;;;;;0.68;0.60;;;22.90;50.90;;;;;;5045825;28;20458;-74
2021/08/20 06:21:53;;;;;;;0.90;0.80;;;22.90;51.30;;;;;;5045929;28;20049;-74
2021/08/20 06:24:20;;;;;;;0.68;0.68;;;22.90;51.40;;;;;;5045609;28;20049;-75
2021/08/20 06:26:48;;;;;;;0.90;0.70;;;22.90;51.30;;;;;;5045474;28;20132;-74
2021/08/20 06:29:17;;;;;;;0.95;0.90;;;22.80;51.40;;;;;;5045854;28;20075;-75
2021/08/20 06:31:49;;;;;;;0.82;0.70;;;22.80;51.70;;;;;;5045213;28;20524;-74
2021/08/20 06:34:16;;;;;;;;;;;22.80;51.60;;;;;;5046058;28;20409;-74
2021/08/20 06:36:44;;;;;;;0.95;0.60;;;22.80;51.60;;;;;;5045409;28;19921;-74
2021/08/20 06:39:12;;;;;;;0.63;0.50;;;22.80;51.90;;;;;;5045856;28;20395;-74
2021/08/20 06:41:40;;;;;;;0.80;0.73;;;22.80;51.80;;;;;;5045151;28;20045;-74
2021/08/20 06:44:07;;;;;;;1.23;0.90;;;22.70;51.60;;;;;;5045434;28;20072;-77
2021/08/20 06:46:35;;;;;;;0.75;0.75;;;22.70;51.90;;;;;;5045951;28;20059;-74
2021/08/20 06:49:03;;;;;;;0.52;0.52;;;22.70;52.00;;;;;;5045229;28;20051;-74
2021/08/20 06:51:31;;;;;;;0.60;0.60;;;22.70;51.80;;;;;;5058680;28;20119;-74
2021/08/20 06:53:58;;;;;;;0.95;0.85;;;22.70;51.90;;;;;;5065539;28;20184;-73
2021/08/20 06:56:25;;;;;;;0.70;0.68;;;22.70;52.10;;;;;;5065504;28;20072;-74
2021/08/20 06:58:52;;;;;;;0.70;0.70;;;22.70;52.00;;;;;;5065663;28;20464;-74
2021/08/20 07:01:19;;;;;;;1.05;0.98;;;22.70;51.90;;;;;;5065807;28;20047;-74
2021/08/20 07:03:46;;;;;;;0.80;0.80;;;22.70;52.10;;;;;;5065917;28;20064;-74
2021/08/20 07:06:22;;;;;;;0.75;0.75;;;22.70;52.20;;;;;;5069302;28;20393;-74
2021/08/20 07:08:50;;;;;;;1.20;0.77;;;22.70;52.00;;;;;;5069090;28;20513;-74
2021/08/20 07:11:19;;;;;;;0.70;0.70;;;22.70;52.00;;;;;;5069317;28;20113;-74
2021/08/20 07:13:46;;;;;;;0.80;0.80;;;22.70;52.10;;;;;;5069129;28;20106;-74
2021/08/20 07:16:14;;;;;;;0.82;0.60;;;22.80;52.00;;;;;;5069018;28;20136;-75
2021/08/20 07:18:41;;;;;;;1.42;1.00;;;22.70;51.90;;;;;;5068770;28;20382;-74
2021/08/20 07:21:08;;;;;;;1.13;0.70;;;22.70;52.00;;;;;;5069397;28;20048;-74
2021/08/20 07:23:35;;;;;;;2.15;0.70;;;22.70;51.90;;;;;;5069084;28;20470;-74
2021/08/20 07:26:04;;;;;;;1.48;0.90;;;22.70;51.80;;;;;;5069441;28;20449;-75
2021/08/20 07:28:32;;;;;;;1.30;0.98;;;22.80;52.00;;;;;;5068861;28;20055;-74
2021/08/20 07:31:00;;;;;;;0.80;0.70;;;22.80;52.00;;;;;;5068531;28;20052;-75
2021/08/20 07:33:28;;;;;;;1.20;1.02;;;22.80;51.80;;;;;;5069008;28;20037;-74
2021/08/20 07:35:55;;;;;;;0.60;0.60;;;22.80;51.80;;;;;;5068540;28;20052;-74
2021/08/20 07:38:22;;;;;;;1.10;0.93;;;22.80;51.80;;;;;;5068333;28;20041;-74
2021/08/20 07:40:49;;;;;;;0.88;0.80;;;22.80;51.70;;;;;;5068692;28;20563;-74
2021/08/20 07:43:16;;;;;;;0.82;0.63;;;22.80;51.50;;;;;;5068725;28;20131;-74
2021/08/20 07:45:43;;;;;;;0.80;0.80;;;22.90;51.60;;;;;;5068740;28;20392;-74
2021/08/20 07:48:12;;;;;;;0.50;0.50;;;22.90;51.60;;;;;;5068354;28;20511;-74
2021/08/20 07:50:40;;;;;;;0.85;0.80;;;22.90;51.50;;;;;;5068450;28;20131;-74
2021/08/20 07:53:08;;;;;;;0.70;0.70;;;22.90;51.50;;;;;;5068310;28;20049;-74
2021/08/20 07:55:35;;;;;;;0.93;0.73;;;22.90;51.50;;;;;;5067750;28;20124;-73
2021/08/20 07:58:02;;;;;;;0.90;0.90;;;23.00;51.50;;;;;;5068607;28;20060;-74
2021/08/20 08:00:31;;;;;;;0.73;0.70;;;23.00;51.60;;;;;;5067893;28;20040;-74
2021/08/20 08:03:00;;;;;;;0.60;0.60;;;23.00;51.60;;;;;;5068400;28;20102;-74
2021/08/20 08:05:29;;;;;;;;;;;23.10;51.50;;;;;;5068406;28;20504;-74
2021/08/20 08:07:57;;;;;;;0.70;0.70;;;23.10;51.40;;;;;;5068344;28;19983;-74
2021/08/20 08:10:25;;;;;;;0.85;0.85;;;23.10;51.30;;;;;;5068053;28;20049;-74
2021/08/20 08:12:53;;;;;;;0.75;0.75;;;23.10;51.20;;;;;;5068021;28;20071;-74
2021/08/20 08:15:22;;;;;;;0.73;0.73;;;23.20;51.10;;;;;;5066913;28;20691;-75
2021/08/20 08:17:50;;;;;;;0.70;0.70;;;23.20;51.10;;;;;;5068127;28;20053;-74
2021/08/20 08:20:18;;;;;;;0.85;0.68;;;23.20;51.00;;;;;;5068090;28;20115;-74
2021/08/20 08:22:46;;;;;;;0.60;0.60;;;23.20;50.90;;;;;;5067874;28;20087;-74
2021/08/20 08:25:16;;;;;;;0.80;0.80;;;23.20;50.90;;;;;;5067765;28;20485;-73
2021/08/20 08:27:56;;;;;;;0.60;0.60;;;23.20;50.80;;;;;;5068061;28;20517;-74
2021/08/20 08:30:26;;;;;;;1.10;0.57;;;23.20;50.70;;;;;;5067758;28;20137;-74
2021/08/20 08:32:55;;;;;;;0.68;0.68;;;23.30;50.60;;;;;;5065349;28;20052;-74
2021/08/20 08:35:24;;;;;;;1.17;0.82;;;23.30;50.50;;;;;;5066761;28;20052;-74
2021/08/20 08:37:51;;;;;;;2.28;0.73;;;23.30;50.50;;;;;;5067615;28;20090;-74
2021/08/20 08:40:18;;;;;;;1.27;0.70;;;23.30;50.30;;;;;;5066774;28;20048;-74
2021/08/20 08:42:47;;;;;;;1.17;1.02;;;23.30;50.10;;;;;;5067269;28;20390;-74
2021/08/20 08:45:14;;;;;;;0.90;0.80;;;23.40;50.00;;;;;;5067054;28;20044;-74
2021/08/20 08:47:42;;;;;;;0.95;0.60;;;23.40;49.80;;;;;;5067747;28;20048;-74
2021/08/20 08:50:10;;;;;;;0.60;0.60;;;23.40;49.70;;;;;;5067451;28;20430;-74
2021/08/20 08:52:38;;;;;;;0.60;0.60;;;23.50;49.60;;;;;;5067616;28;20072;-75
2021/08/20 08:55:07;;;;;;;0.75;0.75;;;23.50;49.60;;;;;;5064106;28;20129;-74
2021/08/20 08:57:34;;;;;;;0.80;0.80;;;23.50;49.50;;;;;;5047118;28;20238;-75
2021/08/20 09:00:03;;;;;;;0.70;0.68;;;23.50;49.40;;;;;;5047077;28;20048;-74
2021/08/20 09:02:32;;;;;;;0.88;0.70;;;23.50;49.40;;;;;;5047391;28;20417;-75
2021/08/20 09:05:02;;;;;;;0.55;0.55;;;23.50;49.30;;;;;;5046852;28;20126;-74
2021/08/20 09:07:29;;;;;;;0.80;0.60;;;23.50;49.30;;;;;;5046663;28;20059;-74
2021/08/20 09:10:26;;;;;;;1.35;1.10;;;23.50;49.70;;;;;;5046989;28;20477;-74
2021/08/20 09:13:00;;;;;;;0.75;0.75;;;23.50;49.10;;;;;;5047205;28;20125;-74
2021/08/20 09:15:29;;;;;;;0.70;0.70;;;23.50;49.10;;;;;;5046821;28;20099;-74
2021/08/20 09:18:00;;;;;;;0.60;0.55;;;23.60;49.20;;;;;;5046791;28;20099;-74
2021/08/20 09:20:32;;;;;;;;;;;23.50;49.00;;;;;;5047295;28;20056;-74
2021/08/20 09:23:01;;;;;;;0.80;0.70;;;23.60;49.00;;;;;;5046662;28;20016;-74
2021/08/20 09:25:31;;;;;;;0.70;0.70;;;23.60;48.90;;;;;;5046780;28;20055;-74
2021/08/20 09:28:22;;;;;;;0.65;0.65;;;23.60;48.80;;;;;;5046633;28;20045;-74
2021/08/20 09:31:02;;;;;;;1.00;0.70;;;23.60;48.70;;;;;;5046346;28;20083;-74
2021/08/20 09:33:36;;;;;;;1.23;0.65;;;23.60;48.60;;;;;;5046787;28;20438;-74
2021/08/20 09:36:06;;;;;;;0.70;0.70;;;23.70;48.60;;;;;;5047045;28;20095;-74
2021/08/20 09:38:39;;;;;;;0.80;0.68;;;23.70;48.60;;;;;;5046634;28;20057;-74
2021/08/20 09:41:11;;;;;;;0.65;0.60;;;23.70;48.60;;;;;;5046589;28;20045;-74
2021/08/20 09:43:43;;;;;;;0.70;0.70;;;23.70;48.50;;;;;;5046694;28;20111;-74
2021/08/20 09:46:12;;;;;;;1.40;0.65;;;23.70;48.50;;;;;;5046313;28;20129;-74
2021/08/20 09:48:47;;;;;;;0.50;0.50;;;23.70;48.50;;;;;;5046486;28;20049;-74
2021/08/20 09:51:36;;;;;;;0.68;0.68;;;23.80;48.50;;;;;;5046204;28;20049;-74
2021/08/20 09:54:10;;;;;;;0.55;0.55;;;23.80;48.40;;;;;;5045226;28;20083;-74
2021/08/20 09:56:57;;;;;;;0.80;0.80;;;23.80;48.30;;;;;;5045797;28;20119;-74
2021/08/20 09:59:29;;;;;;;0.75;0.75;;;23.80;48.20;;;;;;5046336;28;20144;-74
2021/08/20 10:01:59;;;;;;;0.60;0.60;;;23.80;48.20;;;;;;5045630;28;20049;-74
2021/08/20 10:04:29;;;;;;;0.60;0.60;;;23.80;48.20;;;;;;5046055;28;20328;-74
2021/08/20 10:06:59;;;;;;;0.82;0.77;;;23.80;48.10;;;;;;5045919;28;20636;-74
2021/08/20 10:09:29;;;;;;;0.70;0.68;;;23.80;48.10;;;;;;5046046;28;20073;-74
2021/08/20 10:11:58;;;;;;;1.08;0.55;;;23.80;48.10;;;;;;5045548;28;20492;-74
2021/08/20 10:14:27;;;;;;;0.68;0.60;;;23.80;48.00;;;;;;5046372;28;20136;-74
2021/08/20 10:16:54;;;;;;;0.63;0.60;;;23.80;48.00;;;;;;5045432;28;20670;-74
2021/08/20 10:19:22;;;;;;;0.75;0.60;;;23.80;48.00;;;;;;5046022;28;20413;-74
2021/08/20 10:21:49;;;;;;;0.40;0.40;;;23.80;48.10;;;;;;5045869;28;20098;-74
2021/08/20 10:24:16;;;;;;;0.80;0.60;;;23.80;48.10;;;;;;5045885;28;20091;-75
2021/08/20 10:26:51;;;;;;;0.60;0.60;;;23.80;48.00;;;;;;5045441;28;20083;-76
2021/08/20 10:29:25;;;;;;;0.82;0.70;;;23.80;48.10;;;;;;5044760;28;20569;-75
2021/08/20 10:31:53;;;;;;;0.65;0.60;;;23.80;48.10;;;;;;5045285;28;20072;-75
2021/08/20 10:34:34;;;;;;;0.65;0.65;;;23.80;48.10;;;;;;5045535;28;20140;-74
2021/08/20 10:37:09;;;;;;;0.70;0.70;;;23.70;48.10;;;;;;5045099;28;20106;-74
2021/08/20 10:39:44;;;;;;;0.60;0.50;;;23.70;48.20;;;;;;5048148;28;20098;-75
2021/08/20 10:42:14;;;;;;;0.77;0.77;;;23.70;48.10;;;;;;5049221;28;20577;-74
2021/08/20 10:44:46;;;;;;;1.30;1.20;;;23.70;48.10;;;;;;5049445;28;20055;-74
2021/08/20 10:47:27;;;;;;;0.63;0.63;;;23.70;48.10;;;;;;5049804;28;20041;-75
2021/08/20 10:50:11;;;;;;;0.90;0.73;;;23.70;48.10;;;;;;5049392;28;20452;-75
2021/08/20 10:52:41;;;;;;;0.68;0.68;;;23.70;48.10;;;;;;5049670;28;20131;-74
2021/08/20 10:55:14;;;;;;;0.50;0.50;;;23.70;48.00;;;;;;5049725;28;20049;-75
2021/08/20 10:57:55;;;;;;;2.15;0.70;;;23.70;48.00;;;;;;5049347;28;20037;-74
2021/08/20 11:00:25;;;;;;;0.32;0.32;;;23.70;47.90;;;;;;5048977;28;20053;-75
2021/08/20 11:02:54;;;;;;;0.88;0.65;;;23.80;47.90;;;;;;5049844;28;20045;-75
2021/08/20 11:05:44;;;;;;;0.95;0.82;;;23.80;47.80;;;;;;5049476;28;20057;-74
2021/08/20 11:08:32;;;;;;;0.93;0.82;;;23.80;47.70;;;;;;5048866;28;20084;-75
2021/08/20 11:11:01;;;;;;;1.05;0.55;;;23.80;47.80;;;;;;5048297;28;20474;-75
2021/08/20 11:13:29;;;;;;;0.50;0.50;;;23.80;47.70;;;;;;5048851;28;20406;-75
2021/08/20 11:15:57;;;;;;;0.50;0.50;;;23.80;47.70;;;;;;5049372;28;20360;-75
2021/08/20 11:18:46;;;;;;;0.60;0.60;;;23.80;47.70;;;;;;5049095;28;20060;-74
2021/08/20 11:21:43;;;;;;;0.82;0.63;;;23.80;47.70;;;;;;5047621;28;20048;-74
2021/08/20 11:24:15;;;;;;;1.23;0.75;;;23.80;47.70;;;;;;5048807;28;20041;-74
2021/08/20 11:26:44;;;;;;;0.70;0.70;;;23.80;47.70;;;;;;5049337;28;20056;-75
2021/08/20 11:29:13;;;;;;;0.90;0.75;;;23.80;47.70;;;;;;5048644;28;20059;-74
2021/08/20 11:31:41;;;;;;;0.95;0.65;;;23.90;47.70;;;;;;5048465;28;20051;-75
2021/08/20 11:34:08;;;;;;;0.70;0.70;;;23.90;47.70;;;;;;5048666;28;20503;-75
2021/08/20 11:36:42;;;;;;;0.50;0.50;;;23.90;47.70;;;;;;5048903;28;20135;-75
2021/08/20 11:39:13;;;;;;;0.50;0.50;;;23.90;47.60;;;;;;5048488;28;20049;-75
2021/08/20 11:41:43;;;;;;;0.82;0.82;;;23.90;47.50;;;;;;5048560;28;20631;-75
2021/08/20 11:44:13;;;;;;;;;;;23.90;47.40;;;;;;5049248;28;20478;-75
2021/08/20 11:46:42;;;;;;;0.60;0.60;;;23.90;47.40;;;;;;5048231;28;19971;-75
2021/08/20 11:49:11;;;;;;;0.63;0.50;;;23.90;47.30;;;;;;5048392;28;20084;-75
2021/08/20 11:51:40;;;;;;;0.77;0.60;;;23.90;47.30;;;;;;5048279;28;20982;-74
2021/08/20 11:54:10;;;;;;;0.65;0.60;;;23.90;47.40;;;;;;5048000;28;20485;-75
2021/08/20 11:56:52;;;;;;;0.77;0.77;;;23.90;47.40;;;;;;5048312;28;20049;-74
2021/08/20 11:59:21;;;;;;;1.10;0.80;;;23.90;47.40;;;;;;5047521;28;20053;-75
2021/08/20 12:01:54;;;;;;;0.68;0.63;;;23.90;47.40;;;;;;5050793;28;20041;-74
2021/08/20 12:04:35;;;;;;;0.50;0.50;;;23.90;47.40;;;;;;5068325;28;20123;-75
2021/08/20 12:07:02;;;;;;;0.52;0.52;;;23.90;47.30;;;;;;5067664;28;20041;-75
2021/08/20 12:09:29;;;;;;;0.60;0.60;;;23.90;47.30;;;;;;5068207;28;20045;-75
2021/08/20 12:11:57;;;;;;;0.50;0.50;;;23.90;47.20;;;;;;5067835;28;20310;-75
2021/08/20 12:14:27;;;;;;;0.57;0.57;;;23.90;47.20;;;;;;5048380;28;20045;-74
2021/08/20 12:16:58;;;;;;;;;;;23.90;47.20;;;;;;5048694;28;20041;-74
2021/08/20 12:19:43;;;;;;;0.70;0.70;;;23.90;47.10;;;;;;5047204;28;19928;-75
2021/08/20 12:22:12;;;;;;;0.60;0.60;;;23.90;47.10;;;;;;5047591;28;20049;-74
2021/08/20 12:24:44;;;;;;;0.85;0.80;;;24.00;47.00;;;;;;5048461;28;20139;-75
2021/08/20 12:27:25;;;;;;;0.70;0.70;;;24.00;46.90;;;;;;5047642;28;20045;-75
2021/08/20 12:30:10;;;;;;;0.98;0.85;;;24.00;46.90;;;;;;5048016;28;20077;-75
2021/08/20 12:32:41;;;;;;;0.70;0.70;;;24.00;46.90;;;;;;5047061;28;20044;-74
2021/08/20 12:35:16;;;;;;;;;;;24.10;46.90;;;;;;5047708;28;20387;-75
2021/08/20 12:38:18;;;;;;;0.47;0.47;;;24.00;46.80;;;;;;5047308;28;20031;-74
2021/08/20 12:40:57;;;;;;;0.70;0.70;;;24.00;46.90;;;;;;5047082;28;20184;-74
2021/08/20 12:43:28;;;;;;;0.73;0.50;;;24.00;46.90;;;;;;5047025;28;20128;-74
2021/08/20 12:46:07;;;;;;;0.60;0.60;;;24.00;46.90;;;;;;5047327;28;20095;-74
2021/08/20 12:48:35;;;;;;;0.80;0.57;;;24.00;46.90;;;;;;5047108;28;20044;-75
2021/08/20 12:51:05;;;;;;;0.68;0.68;;;24.00;46.80;;;;;;5047249;28;20128;-74
2021/08/20 12:53:35;;;;;;;1.27;0.70;;;24.00;46.70;;;;;;5047138;28;20322;-75
2021/08/20 12:56:02;;;;;;;0.73;0.73;;;24.10;46.80;;;;;;5047189;28;20077;-75
2021/08/20 12:58:31;;;;;;;0.60;0.60;;;24.00;46.70;;;;;;5047216;28;20051;-74
2021/08/20 13:01:01;;;;;;;0.85;0.70;;;24.10;46.60;;;;;;5046340;28;20068;-74